SBOSBO FCO / LIRF
Speedbird OnlineSpeedbird Online FCO / LIRF

Leonardo da Vinci–Fiumicino Airport
10:32 19.5°C

Location Rome, Italy
Latitude: 41.8002778
Longitude: 12.2388889
Web Airport Website | Wikipedia
Altitude 4 Meter / 13 Feet
Distance 1,418 KM / 881 Miles
from London.
Time Zone UTC +2 hours (Europe/Rome)
Codes IATA: FCO
ICAO: LIRF
Currency £1 equals EUR 1.15
Runways
RunwayLength (m)Surface
073307Asphalt
16C3602Asphalt
16L3902Asphalt
16R3902Asphalt
253307Asphalt
34C3602Asphalt
34L3902Asphalt
34R3902Asphalt
Radio
TypeDescriptionFrequency
ARRROMA DIRECTOR ARR120.175
ATISATIS121.85
CLDFIUME RAMP121.725
GNDFIUME GND/APRON121.8
TWRFIUME TWR118.7
Live ATC
METAR LIRF 060750Z 06004KT CAVOK 19/18 Q1026 NOSIG
TAF TAF AMD LIRF 060601Z 0606/0712 VRB05KT 9999 FEW020 TEMPO 0606/0608 1500 BCFG SCT002 BECMG 0609/0611 28010KT BECMG 0616/0618 VRB05KT TEMPO 0700/0706 2000 BR BECMG 0709/0711 26010KT
Weather As Of 06 Oct 2022 10:32
Description Clear sky
Wind 7 km/h from North-East (60°)
Cloud Cover 0%
Precipitation Rain: none, Snow: none
Sunrise 07:12
Sunset 18:45
Lounges Star Alliance lounge, T3
Plaza Premium Lounge (E Gates) TEMPORARILY CLOSED, Terminal 3
Prima Vista, Terminal 3
British Airways Lounge (Open), Terminal 3
Prima Vista (E Gates) , Terminal 3, Pier E, Satellite Area
Rotations During the last 90 days there were
389 flights from LHR
1 flights from BLQ
393 flights to LHR


© 2017-2022 Speedbird Online